Orchard, CO (80649)

10:41 AM MDT on October 02, 2014 (GMT -0600)
Fort Morgan | Change Station
CLOSE
Current Station
Airport
Location: Fort Morgan,
Elevation: 4570 ft
Nearby Weather Stations

Elev 4570 ft 40.33 °N, 103.80 °W | Updated 6 minutes ago

Clear
Clear
55 °F
Feels Like 55 °F
N
12
Wind Variable Wind from WNW
Gusts 16 mph

Today
High -- | Low -- °F
--% Chance of Precip.
Yesterday
High -- | Low -- °F
Precip. -- in
6:53 AM 6:36 PM
First Quarter, 60% visible
Pressure 30.13 in
Visibility 10.0 miles
Clouds Clear
Dew Point 38 °F
Humidity 53%
Rainfall 0.00 in
Snow Depth 1 in , 1 in , 0 in
UV 5 out of 12
Pollen 3.00 out of 12
Air Quality Not available.
Flu Activity Not available.
METAR KFMM 021635Z AUTO 29010G14KT 10SM CLR 13/03 A3013 RMK AO2 T01290034

More Conditions Fewer Conditions

Pressure 30.13 in
Visibility 10.0 miles
Clouds Clear
Dew Point 38 °F
Humidity 53%
Rainfall 0.00 in
Snow Depth 1 in , 1 in , 0 in
UV 5 out of 12
Pollen 3.00 out of 12
Air Quality Not available.
Flu Activity Not available.
METAR KFMM 021635Z AUTO 29010G14KT 10SM CLR 13/03 A3013 RMK AO2 T01290034

More Conditions Fewer Conditions

10-Day Weather Forecast

Almanac

Astronomy

Oct. 02, 2014 Rise Set
Actual Time 6:53 AM MDT 6:36 PM MDT
Civil Twilight 6:26 AM MDT 7:03 PM MDT
Nautical Twilight 5:55 AM MDT 7:35 PM MDT
Astronomical Twilight 5:23 AM MDT 8:07 PM MDT
Moon 2:46 PM MDT 12:12 AM MDT
Length of Visible Light 12h 37m
Length of Day
11h 42m
Tomorrow will be 2m 38s shorter.
First Quarter, 60% of the Moon is Illuminated
Today
First Quarter
Oct 8
Full
Oct 15
Last Quarter
Oct 23
New
Oct 30
First Quarter

Today's Extremes

State Highs State Lows

Community

WunderPhotos

Upload Photos

1,758,294 photos uploaded!

WunderBlogs® & News

Nearby

Snow Depth

Station Depth Elevation
Cochetopa Pass 1 in 10020 ft
Grayback 1 in 11620 ft
Phantom Valley 0 in 9030 ft
Joe Wright 3 in 10120 ft
Rawah 5 in 9020 ft

Earthquake Activity

City Distance Mag. Time & Date
No recent earthquake activity has been reported nearby.
Minimum magnitude displayed is 2.5.

Coastal Water Temperatures

Place Temperature
No Stations Reporting

Nearby Weather Stations